Time;durP1;ratioP1;P1;durP2;ratioP2;P2;SDS_P1;SDS_P2;PMS_P1;PMS_P2;Temp;Humidity;BMP_temperature;BMP_pressure;BME280_temperature;BME280_humidity;BME280_pressure;Samples;Min_cycle;Max_cycle;Signal;HPM_P1;HPM_P2
2022/08/11 00:00:02;;;;;;;4.57;2.67;;;;;;;17.54;100.00;99752.25;4431420;32;20438;-71
2022/08/11 00:02:52;;;;;;;3.87;2.20;;;;;;;17.58;100.00;99752.50;4413486;32;20372;-69
2022/08/11 00:05:20;;;;;;;3.58;2.22;;;;;;;17.64;100.00;99756.03;4414619;32;20072;-70
2022/08/11 00:07:52;;;;;;;4.25;2.62;;;;;;;17.35;100.00;99716.66;4416523;32;20046;-70
2022/08/11 00:10:23;;;;;;;4.30;2.72;;;;;;;17.48;100.00;99741.66;4416377;32;20420;-69
2022/08/11 00:12:53;;;;;;;7.55;2.42;;;;;;;17.16;100.00;99688.41;4419258;32;20045;-69
2022/08/11 00:15:20;;;;;;;4.35;2.33;;;;;;;17.54;100.00;99751.44;4430119;32;20022;-70
2022/08/11 00:17:47;;;;;;;10.13;2.58;;;;;;;17.51;100.00;99738.38;4429820;32;20161;-69
2022/08/11 00:20:15;;;;;;;8.10;2.53;;;;;;;17.47;100.00;99729.13;4430639;32;20424;-70
2022/08/11 00:22:45;;;;;;;4.80;2.28;;;;;;;17.58;100.00;99752.50;4430481;32;20052;-70
2022/08/11 00:25:16;;;;;;;2.25;2.12;;;;;;;17.54;100.00;99749.53;4430689;32;20022;-71
2022/08/11 00:27:43;;;;;;;;;;;;;;;17.39;100.00;99739.50;4430809;32;20045;-69
2022/08/11 00:30:12;;;;;;;4.47;2.20;;;;;;;17.69;100.00;99750.53;4430565;32;19995;-69
2022/08/11 00:32:42;;;;;;;4.97;3.20;;;;;;;17.73;100.00;99755.16;4434070;32;20031;-69
2022/08/11 00:35:13;;;;;;;3.28;2.33;;;;;;;17.78;100.00;99763.28;4461479;32;20033;-70
2022/08/11 00:37:47;;;;;;;14.68;2.60;;;;;;;17.71;100.00;99751.91;4463619;32;20918;-69
2022/08/11 00:40:27;;;;;;;5.10;2.83;;;;;;;17.27;100.00;99681.84;4445141;32;20041;-69
2022/08/11 00:43:14;;;;;;;4.85;2.28;;;;;;;17.67;100.00;99755.47;4443390;32;20033;-69
2022/08/11 00:46:16;;;;;;;3.90;2.20;;;;;;;17.59;100.00;99743.25;4445542;32;20049;-69
2022/08/11 00:49:07;;;;;;;6.03;2.85;;;;;;;17.62;100.00;99753.56;4445434;32;20037;-70
2022/08/11 00:51:36;;;;;;;2.77;2.57;;;;;;;17.61;100.00;99763.66;4444466;32;20046;-71
2022/08/11 00:54:20;;;;;;;4.80;2.70;;;;;;;17.56;100.00;99749.25;4451965;32;20308;-70
2022/08/11 00:57:14;;;;;;;8.60;3.12;;;;;;;17.47;100.00;99745.47;4451467;32;20092;-69
2022/08/11 00:59:59;;;;;;;10.20;2.33;;;;;;;17.47;100.00;99748.19;4453933;32;20110;-70
2022/08/11 01:02:47;;;;;;;3.47;2.40;;;;;;;17.05;100.00;99712.13;4454984;32;20204;-69
2022/08/11 01:05:20;;;;;;;2.83;2.62;;;;;;;17.21;100.00;99753.69;4455316;32;20510;-70
2022/08/11 01:08:22;;;;;;;4.00;2.40;;;;;;;17.16;100.00;99746.38;4456832;32;20113;-70
2022/08/11 01:11:13;;;;;;;2.85;2.53;;;;;;;16.90;100.00;99712.97;4460760;32;20095;-68
2022/08/11 01:14:05;;;;;;;2.87;2.62;;;;;;;17.19;100.00;99747.72;4470261;32;20097;-71
2022/08/11 01:16:49;;;;;;;3.92;2.83;;;;;;;16.99;100.00;99716.78;4471900;32;20100;-69
2022/08/11 01:19:31;;;;;;;2.97;2.67;;;;;;;17.21;100.00;99754.50;4469686;32;20101;-70
2022/08/11 01:22:16;;;;;;;3.65;2.33;;;;;;;17.12;100.00;99755.34;4471397;32;20108;-69
2022/08/11 01:25:29;;;;;;;3.97;2.85;;;;;;;17.02;100.00;99759.75;4468502;32;20097;-69
2022/08/11 01:28:27;;;;;;;6.28;2.75;;;;;;;16.65;100.00;99690.13;4460967;32;20063;-71
2022/08/11 01:31:32;;;;;;;2.90;2.58;;;;;;;17.05;100.00;99751.00;4462964;32;20059;-69
2022/08/11 01:34:10;;;;;;;3.12;2.28;;;;;;;17.14;100.00;99753.19;4462830;32;20055;-68
2022/08/11 01:36:59;;;;;;;3.92;3.30;;;;;;;17.12;100.00;99755.34;4462419;32;20052;-69
2022/08/11 01:39:58;;;;;;;7.55;3.47;;;;;;;17.10;100.00;99757.53;4458956;32;20078;-69
2022/08/11 01:45:59;;;;;;;5.75;3.22;;;;;;;16.86;100.00;99714.59;4462697;32;20076;-69
2022/08/11 01:48:40;;;;;;;8.60;3.67;;;;;;;17.06;100.00;99739.03;4461518;32;20045;-70
2022/08/11 01:51:24;;;;;;;10.38;4.18;;;;;;;17.04;100.00;99749.41;4462504;32;20078;-71
2022/08/11 01:54:26;;;;;;;5.65;3.78;;;;;;;17.02;100.00;99746.16;4461060;32;20058;-69
2022/08/11 01:57:32;;;;;;;11.10;4.43;;;;;;;16.73;100.00;99715.12;4383260;32;20031;-70
2022/08/11 02:00:12;;;;;;;5.70;3.83;;;;;;;16.92;100.00;99757.03;4381280;32;20399;-71
2022/08/11 02:03:00;;;;;;;7.12;4.40;;;;;;;16.74;100.00;99743.94;4383860;32;20031;-69
2022/08/11 02:05:49;;;;;;;10.32;4.57;;;;;;;16.81;100.00;99761.62;4354285;32;20377;-69
2022/08/11 02:08:20;;;;;;;9.40;4.50;;;;;;;16.76;100.00;99750.75;4364499;32;20031;-70
2022/08/11 02:14:01;;;;;;;7.32;3.78;;;;;;;16.77;100.00;99759.72;4356688;32;20194;-69
2022/08/11 02:16:46;;;;;;;8.73;4.18;;;;;;;16.69;100.00;99753.75;4356586;32;20051;-70
2022/08/11 02:26:03;;;;;;;13.25;4.10;;;;;;;16.53;100.00;99750.22;4353779;32;20054;-69
2022/08/11 02:28:58;;;;;;;8.73;4.25;;;;;;;16.23;100.00;99715.69;4355063;32;20492;-69
2022/08/11 02:34:41;;;;;;;7.30;4.28;;;;;;;16.23;100.00;99723.84;4403763;32;20395;-70
2022/08/11 02:37:18;;;;;;;6.53;4.00;;;;;;;16.42;100.00;99753.19;4415953;32;20038;-69
2022/08/11 02:39:56;;;;;;;11.70;5.37;;;;;;;16.42;100.00;99747.75;4415807;32;20056;-70
2022/08/11 02:42:28;;;;;;;14.60;4.18;;;;;;;16.42;100.00;99753.19;4423640;32;20042;-69
2022/08/11 02:45:18;;;;;;;8.65;3.62;;;;;;;16.22;100.00;99715.97;4448050;32;20041;-69
2022/08/11 02:51:09;;;;;;;6.65;3.78;;;;;;;16.53;100.00;99755.66;4446479;32;20068;-70
2022/08/11 02:54:09;;;;;;;6.10;3.60;;;;;;;16.55;100.00;99746.44;4447428;32;20382;-70
2022/08/11 02:56:54;;;;;;;11.85;3.55;;;;;;;16.47;100.00;99753.22;4448128;32;20067;-72
2022/08/11 02:59:49;;;;;;;13.62;4.18;;;;;;;16.38;100.00;99757.53;4449615;32;20034;-71
2022/08/11 03:02:30;;;;;;;5.43;3.78;;;;;;;16.26;100.00;99755.91;4446411;32;20042;-72
2022/08/11 03:04:56;;;;;;;4.85;3.80;;;;;;;16.28;100.00;99750.19;4445160;32;20038;-72
2022/08/11 03:07:57;;;;;;;7.00;4.18;;;;;;;16.24;100.00;99749.94;4429664;32;20029;-71
2022/08/11 03:10:41;;;;;;;3.90;3.37;;;;;;;16.27;100.00;99735.78;4430805;32;20059;-72
2022/08/11 03:16:46;;;;;;;7.95;4.28;;;;;;;16.01;100.00;99698.81;4430505;32;20382;-72
2022/08/11 03:19:48;;;;;;;5.90;3.78;;;;;;;15.96;100.00;99705.88;4431345;32;20033;-72
2022/08/11 03:22:36;;;;;;;4.80;3.60;;;;;;;16.20;100.00;99740.69;4431207;32;20030;-72
2022/08/11 03:25:12;;;;;;;9.55;3.40;;;;;;;15.95;100.00;99736.00;4430327;32;20064;-71
2022/08/11 03:27:51;;;;;;;7.50;4.00;;;;;;;15.70;100.00;99704.13;4431318;32;20038;-72
2022/08/11 03:30:32;;;;;;;4.30;3.25;;;;;;;15.90;100.00;99747.66;4431350;32;20056;-71
2022/08/11 03:36:35;;;;;;;9.45;4.45;;;;;;;15.96;100.00;99746.59;4446684;32;20049;-71
2022/08/11 03:39:07;;;;;;;12.48;5.00;;;;;;;16.12;100.00;99754.78;4446476;32;20060;-72
2022/08/11 03:41:52;;;;;;;7.53;4.10;;;;;;;16.07;100.00;99746.66;4446581;32;20052;-71
2022/08/11 03:44:56;;;;;;;13.00;4.97;;;;;;;16.18;100.00;99753.72;4445710;32;20048;-71
2022/08/11 03:47:46;;;;;;;11.15;4.68;;;;;;;16.23;100.00;99745.56;4445025;32;20075;-71
2022/08/11 03:50:46;;;;;;;9.30;4.03;;;;;;;16.32;100.00;99754.84;4446447;32;20030;-71
2022/08/11 03:53:53;;;;;;;7.82;4.20;;;;;;;16.02;100.00;99711.31;4444549;32;20069;-71
2022/08/11 03:56:19;;;;;;;8.18;5.03;;;;;;;16.13;100.00;99751.81;4442740;32;20068;-71
2022/08/11 03:58:48;;;;;;;13.60;5.28;;;;;;;15.95;100.00;99761.25;4429936;32;20067;-70
2022/08/11 04:01:48;;;;;;;11.95;4.80;;;;;;;15.92;100.00;99756.38;4432275;32;20030;-71
2022/08/11 04:04:53;;;;;;;12.55;4.72;;;;;;;15.86;100.00;99754.72;4448978;32;20046;-71
2022/08/11 04:07:25;;;;;;;6.70;4.03;;;;;;;15.85;100.00;99755.81;4454565;32;20333;-71
2022/08/11 04:10:35;;;;;;;12.15;3.95;;;;;;;15.64;100.00;99716.09;4452034;32;20049;-72
2022/08/11 04:13:32;;;;;;;7.03;4.10;;;;;;;16.13;100.00;99756.41;4417401;32;20055;-72
2022/08/11 04:16:08;;;;;;;7.53;4.10;;;;;;;16.30;100.00;99756.97;4445687;32;20034;-72
2022/08/11 04:19:00;;;;;;;7.20;4.45;;;;;;;16.31;100.00;99764.06;4447640;32;20029;-71
2022/08/11 04:21:43;;;;;;;9.00;3.83;;;;;;;16.26;100.00;99766.78;4436756;32;20374;-72
2022/08/11 04:24:28;;;;;;;12.23;4.03;;;;;;;16.39;100.00;99770.06;4448197;32;20059;-72
2022/08/11 04:27:00;;;;;;;7.78;3.95;;;;;;;16.55;100.00;99766.25;4446461;32;20052;-72
2022/08/11 04:29:54;;;;;;;5.85;4.00;;;;;;;16.60;100.00;99771.69;4445373;32;20164;-72
2022/08/11 04:32:33;;;;;;;14.20;4.75;;;;;;;16.49;100.00;99737.44;4447420;32;20066;-72
2022/08/11 04:35:33;;;;;;;5.40;3.58;;;;;;;16.88;100.00;99772.25;4446643;32;20063;-72
2022/08/11 04:38:21;;;;;;;10.35;3.65;;;;;;;16.93;100.00;99772.25;4427534;32;20491;-72
2022/08/11 04:41:25;;;;;;;10.52;3.62;;;;;;;17.00;100.00;99767.34;4430224;32;20060;-72
2022/08/11 04:44:10;;;;;;;5.28;3.35;;;;;;;17.18;100.00;99759.69;4427333;32;20058;-72
2022/08/11 04:47:04;;;;;;;6.72;3.83;;;;;;;17.31;100.00;99771.91;4428539;32;20060;-72
2022/08/11 05:02:22;;;;;;;4.35;3.17;;;;;;;17.96;100.00;99774.69;4384887;32;20041;-70
2022/08/11 05:05:38;;;;;;;9.00;2.97;;;;;;;18.15;100.00;99772.94;4430014;32;20014;-71
2022/08/11 05:08:42;;;;;;;6.22;3.65;;;;;;;18.16;100.00;99768.31;4387620;32;20042;-72
2022/08/11 05:11:51;;;;;;;4.90;2.70;;;;;;;18.29;100.00;99772.31;4430236;32;20034;-71
2022/08/11 05:37:33;;;;;;;16.73;3.22;;;;;;;19.04;100.00;99779.37;4429630;32;20911;-72
2022/08/11 05:57:25;;;;;;;8.07;2.40;;;;;;;19.70;100.00;99786.03;4465379;32;20055;-72
2022/08/11 06:00:04;;;;;;;10.05;5.57;;;;;;;19.72;100.00;99777.53;4465743;32;20447;-71
2022/08/11 06:02:49;;;;;;;16.05;5.00;;;;;;;19.98;100.00;99785.47;4465112;32;20103;-71
2022/08/11 06:05:16;;;;;;;9.55;2.90;;;;;;;20.09;100.00;99793.22;4465186;32;20133;-72
2022/08/11 06:07:44;;;;;;;3.60;2.35;;;;;;;20.12;100.00;99772.69;4465171;32;20088;-71
2022/08/11 06:10:11;;;;;;;2.87;2.15;;;;;;;20.14;100.00;99784.94;4463255;32;20142;-71
2022/08/11 06:12:39;;;;;;;5.95;2.55;;;;;;;20.20;100.00;99779.41;4416769;32;20984;-72
2022/08/11 06:15:09;;;;;;;4.95;3.50;;;;;;;20.40;100.00;99789.22;4417193;32;20067;-72
2022/08/11 06:17:45;;;;;;;2.12;1.77;;;;;;;20.42;100.00;99773.31;4416061;32;20046;-72
2022/08/11 06:20:17;;;;;;;5.22;2.17;;;;;;;20.65;100.00;99791.59;4416046;32;20405;-71
2022/08/11 06:22:54;;;;;;;6.18;1.95;;;;;;;20.54;100.00;99757.28;4401616;32;20022;-71
2022/08/11 06:25:28;;;;;;;4.87;2.17;;;;;;;20.47;100.00;99748.63;4401379;32;20074;-72
2022/08/11 06:27:56;;;;;;;7.00;1.67;;;;;;;20.58;100.00;99788.41;4369542;32;21017;-71
2022/08/11 06:30:39;;;;;;;3.83;1.60;;;;;;;20.39;100.00;99760.25;4371231;32;20035;-72
2022/08/11 06:33:12;;;;;;;5.80;1.80;;;;;;;20.44;100.00;99757.44;4370279;32;20173;-71
2022/08/11 06:35:50;;;;;;;4.82;1.55;;;;;;;20.81;100.00;99783.12;4371176;32;20047;-72
2022/08/11 06:38:46;;;;;;;6.37;1.58;;;;;;;20.94;100.00;99782.34;4354565;32;20035;-71
2022/08/11 06:41:29;;;;;;;2.70;1.95;;;;;;;21.09;100.00;99788.66;4355849;32;20066;-72
2022/08/11 06:44:15;;;;;;;3.25;1.77;;;;;;;21.10;100.00;99793.03;4364360;32;20431;-72
2022/08/11 06:46:41;;;;;;;8.23;1.98;;;;;;;21.12;100.00;99788.06;4369360;32;20077;-71
2022/08/11 06:52:12;;;;;;;5.50;1.48;;;;;;;21.29;100.00;99799.25;4378856;32;20056;-72
2022/08/11 06:54:49;;;;;;;5.40;1.45;;;;;;;21.14;100.00;99747.50;4398529;32;20053;-72
2022/08/11 07:02:54;;;;;;;4.57;1.60;;;;;;;21.22;100.00;99738.59;4416091;32;20042;-71
2022/08/11 07:05:36;;;;;;;9.95;1.58;;;;;;;21.37;100.00;99741.03;4430242;32;20077;-72
2022/08/11 07:15:40;;;;;;;2.58;1.90;;;;;;;21.74;100.00;99794.00;4457134;32;20110;-71
2022/08/11 07:17:24;;;;;;;;;;;;;;;21.55;100.00;99776.88;4456963;32;20446;-69
2022/08/11 07:31:20;;;;;;;3.08;1.80;;;;;;;21.99;100.00;99766.38;4446561;32;20070;-72
2022/08/11 07:33:55;;;;;;;2.10;1.85;;;;;;;22.09;100.00;99772.44;4445972;32;20029;-76
2022/08/11 07:36:27;;;;;;;5.95;1.87;;;;;;;22.18;100.00;99752.50;4449703;32;20080;-73
2022/08/11 07:38:56;;;;;;;11.00;1.90;;;;;;;22.05;100.00;99744.03;4448478;32;20037;-72
2022/08/11 07:41:24;;;;;;;4.68;2.22;;;;;;;22.23;100.00;99733.22;4457169;32;20029;-72
2022/08/11 07:43:54;;;;;;;6.65;1.80;;;;;;;22.17;100.00;99724.28;4460871;32;20074;-71
2022/08/11 07:54:42;;;;;;;5.30;1.67;;;;;;;22.45;100.00;99741.47;4462588;32;20045;-71
2022/08/11 08:19:20;;;;;;;8.48;1.50;;;;;;;22.71;100.00;99787.50;4460976;32;20071;-73
2022/08/11 08:21:47;;;;;;;1.50;1.40;;;;;;;22.73;100.00;99778.94;4463275;32;20053;-70
2022/08/11 08:24:14;;;;;;;2.60;1.67;;;;;;;22.65;100.00;99739.34;4463430;32;20036;-70
2022/08/11 08:26:58;;;;;;;4.47;1.50;;;;;;;23.15;100.00;99777.63;4463077;32;20583;-71
2022/08/11 08:32:17;;;;;;;3.40;1.52;;;;;;;22.78;100.00;99743.94;4462796;32;20049;-71
2022/08/11 08:34:45;;;;;;;1.45;1.35;;;;;;;22.85;100.00;99771.75;4462243;32;20029;-75
2022/08/11 08:37:12;;;;;;;1.52;1.15;;;;;;;22.70;100.00;99741.94;4463107;32;20084;-71
2022/08/11 08:39:39;;;;;;;7.75;1.62;;;;;;;22.48;100.00;99699.69;4463013;32;20038;-71
2022/08/11 08:42:11;;;;;;;3.47;1.33;;;;;;;23.04;100.00;99773.50;4463220;32;20037;-72
2022/08/11 08:44:41;;;;;;;;;;;;;;;23.03;100.00;99738.91;4445382;32;20037;-75
2022/08/11 08:47:17;;;;;;;1.12;1.00;;;;;;;23.40;100.00;99776.09;4427499;32;20577;-71
2022/08/11 08:49:48;;;;;;;3.15;1.60;;;;;;;23.13;100.00;99771.59;4429557;32;20018;-70
2022/08/11 08:52:22;;;;;;;1.20;0.82;;;;;;;23.04;100.00;99746.03;4427836;32;20349;-71
2022/08/11 08:54:53;;;;;;;1.30;1.30;;;;;;;23.44;99.59;99768.03;4427663;32;20437;-71
2022/08/11 08:57:22;;;;;;;2.45;1.50;;;;;;;23.60;100.00;99773.09;4430039;32;20322;-71
2022/08/11 08:59:50;;;;;;;3.12;0.85;;;;;;;23.26;99.22;99769.09;4429676;32;20364;-71
2022/08/11 09:02:22;;;;;;;2.25;1.02;;;;;;;23.11;100.00;99734.63;4423652;32;20056;-73
2022/08/11 09:04:50;;;;;;;1.87;1.00;;;;;;;23.20;97.99;99728.03;4421318;32;20051;-73
2022/08/11 09:07:18;;;;;;;1.20;1.00;;;;;;;22.92;94.61;99688.13;4421414;32;20042;-72
2022/08/11 09:09:47;;;;;;;6.43;0.95;;;;;;;23.12;93.71;99734.31;4429479;32;20034;-73
2022/08/11 09:12:17;;;;;;;4.47;1.42;;;;;;;23.38;94.56;99766.56;4426665;32;20081;-71
2022/08/11 09:14:59;;;;;;;1.20;1.10;;;;;;;23.47;89.41;99759.16;4414433;32;20165;-71
2022/08/11 09:17:29;;;;;;;3.83;1.83;;;;;;;23.61;91.78;99760.97;4421326;32;20068;-71
2022/08/11 09:19:59;;;;;;;4.15;1.00;;;;;;;23.74;90.20;99773.78;4432763;32;20034;-71
2022/08/11 09:28:01;;;;;;;5.75;1.40;;;;;;;23.91;91.87;99732.59;4429948;32;20034;-73
2022/08/11 09:30:33;;;;;;;1.65;1.20;;;;;;;23.30;90.01;99690.41;4431562;32;20080;-73
2022/08/11 09:33:03;;;;;;;5.72;1.40;;;;;;;23.60;88.99;99709.88;4430954;32;20067;-72
2022/08/11 09:35:35;;;;;;;6.37;1.20;;;;;;;23.67;90.16;99724.75;4432399;32;20026;-73
2022/08/11 09:40:51;;;;;;;3.55;1.40;;;;;;;23.48;80.52;99733.28;4423235;32;20104;-72
2022/08/11 09:46:05;;;;;;;1.27;1.02;;;;;;;24.15;81.55;99720.31;4441305;32;20018;-72
2022/08/11 09:48:53;;;;;;;2.03;0.90;;;;;;;23.92;77.90;99714.97;4450611;32;20122;-71
2022/08/11 09:51:20;;;;;;;2.62;1.10;;;;;;;24.09;79.40;99751.84;4455325;32;20037;-71
2022/08/11 09:53:49;;;;;;;1.10;1.10;;;;;;;23.74;79.52;99685.78;4463560;32;20059;-71
2022/08/11 09:59:04;;;;;;;2.92;1.23;;;;;;;24.09;79.29;99718.84;4447843;32;20076;-72
2022/08/11 10:01:40;;;;;;;1.12;1.12;;;;;;;24.23;79.25;99707.69;4453103;32;20063;-71
2022/08/11 10:04:21;;;;;;;7.85;2.15;;;;;;;24.65;76.07;99724.47;4465248;32;20134;-72
2022/08/11 10:07:00;;;;;;;5.05;1.70;;;;;;;24.77;80.28;99710.06;4463600;32;20063;-72
2022/08/11 10:09:51;;;;;;;0.90;0.90;;;;;;;24.68;73.18;99712.03;4465028;32;20049;-71
2022/08/11 10:12:25;;;;;;;2.87;1.00;;;;;;;24.92;65.17;99739.84;4428284;32;20127;-71
2022/08/11 10:15:42;;;;;;;5.60;1.37;;;;;;;25.00;63.49;99752.75;4400109;32;20061;-71
2022/08/11 10:20:36;;;;;;;7.60;1.20;;;;;;;24.94;66.99;99734.78;4369473;32;20047;-71
2022/08/11 10:28:35;;;;;;;7.62;1.40;;;;;;;25.34;66.20;99725.44;4400388;32;20047;-72
2022/08/11 10:34:00;;;;;;;1.67;1.25;;;;;;;24.94;59.16;99693.47;4401716;32;20046;-71
2022/08/11 10:36:47;;;;;;;4.28;1.20;;;;;;;24.99;63.17;99718.09;4395532;32;20053;-70
2022/08/11 10:39:19;;;;;;;1.17;1.10;;;;;;;25.51;63.77;99727.28;4398762;32;20034;-71
2022/08/11 10:44:37;;;;;;;5.00;1.15;;;;;;;25.35;64.73;99719.59;4429403;32;19996;-72
2022/08/11 10:51:11;;;;;;;0.88;0.88;;;;;;;25.76;61.28;99683.34;4413892;32;20023;-72
2022/08/11 11:01:09;;;;;;;5.65;1.20;;;;;;;26.07;61.48;99705.00;4436698;32;20030;-72
2022/08/11 11:03:36;;;;;;;8.48;1.20;;;;;;;26.42;63.27;99677.91;4433230;32;20072;-72
2022/08/11 11:06:24;;;;;;;1.30;1.20;;;;;;;26.02;57.43;99670.16;4436625;32;20049;-82
2022/08/11 11:09:31;;;;;;;1.85;1.12;;;;;;;26.38;53.29;99699.06;4434514;32;20067;-73
2022/08/11 11:18:10;;;;;;;1.15;1.02;;;;;;;24.73;71.57;99676.03;4433681;32;20042;-72
2022/08/11 11:20:41;;;;;;;0.73;0.73;;;;;;;25.19;70.44;99688.16;4439399;32;20067;-74
2022/08/11 11:23:10;;;;;;;1.42;1.10;;;;;;;25.72;64.66;99681.25;4444552;32;20931;-72
2022/08/11 11:26:05;;;;;;;3.20;1.02;;;;;;;26.26;60.43;99657.59;4435965;32;20042;-73
2022/08/11 11:29:15;;;;;;;0.85;0.73;;;;;;;26.22;56.93;99667.72;4431319;32;20053;-72
2022/08/11 11:31:51;;;;;;;0.82;0.82;;;;;;;26.22;58.84;99663.00;4432886;32;20049;-72
2022/08/11 11:34:23;;;;;;;1.42;0.95;;;;;;;26.28;62.16;99663.59;4439642;32;20041;-71
2022/08/11 11:37:00;;;;;;;0.90;0.90;;;;;;;25.21;62.06;99663.88;4439182;32;20046;-71
2022/08/11 11:39:30;;;;;;;6.30;1.10;;;;;;;25.91;61.65;99663.41;4431238;32;20068;-75
2022/08/11 11:42:00;;;;;;;6.55;1.02;;;;;;;26.02;53.83;99653.59;4432650;32;20206;-72
2022/08/11 11:44:28;;;;;;;1.10;1.02;;;;;;;26.80;53.46;99640.94;4438626;32;20050;-71
2022/08/11 11:46:55;;;;;;;0.85;0.85;;;;;;;26.74;49.91;99628.53;4438220;32;20383;-72
2022/08/11 11:49:25;;;;;;;3.87;1.10;;;;;;;26.74;50.96;99639.59;4440718;32;20461;-72
2022/08/11 11:51:54;;;;;;;4.07;1.30;;;;;;;26.79;52.13;99620.00;4440750;32;20084;-71
2022/08/11 11:54:25;;;;;;;6.95;1.12;;;;;;;26.77;50.42;99638.91;4454678;32;20107;-72
2022/08/11 11:56:54;;;;;;;;;;;;;;;27.08;47.44;99626.47;4455663;32;20088;-72
2022/08/11 12:02:08;;;;;;;4.68;0.80;;;;;;;27.50;45.92;99625.41;4453950;32;20034;-70
2022/08/11 12:04:39;;;;;;;0.98;0.90;;;;;;;27.75;46.28;99628.91;4455445;32;20041;-71
2022/08/11 12:09:54;;;;;;;5.85;1.00;;;;;;;27.34;46.26;99628.06;4455630;32;20472;-72
2022/08/11 12:15:08;;;;;;;4.65;0.98;;;;;;;26.76;47.73;99576.50;4447908;32;20075;-73
2022/08/11 12:17:35;;;;;;;0.80;0.80;;;;;;;27.42;46.27;99616.06;4447355;32;20436;-70
2022/08/11 12:20:03;;;;;;;2.80;0.88;;;;;;;27.32;44.69;99591.69;4447662;32;20069;-71
2022/08/11 12:28:02;;;;;;;1.77;1.10;;;;;;;28.14;42.57;99604.31;4427154;32;20449;-71
2022/08/11 12:30:29;;;;;;;1.00;1.00;;;;;;;28.24;43.92;99531.84;4430470;32;20103;-70
2022/08/11 12:32:56;;;;;;;1.73;0.80;;;;;;;29.07;41.14;99589.25;4437439;32;20052;-70
2022/08/11 12:35:23;;;;;;;1.73;1.02;;;;;;;29.25;40.62;99595.22;4436933;32;20060;-70
2022/08/11 12:37:58;;;;;;;3.20;1.00;;;;;;;28.49;40.27;99515.03;4436666;32;20033;-70
2022/08/11 12:46:07;;;;;;;1.33;1.30;;;;;;;28.55;43.58;99601.44;4437982;32;20142;-71
2022/08/11 12:54:33;;;;;;;1.00;1.00;;;;;;;27.15;45.92;99590.75;4447270;32;20037;-72
2022/08/11 13:05:35;;;;;;;1.45;1.37;;;;;;;28.36;42.23;99560.59;4444901;32;20046;-72
2022/08/11 13:08:03;;;;;;;1.95;1.02;;;;;;;28.08;42.26;99578.03;4447129;32;20062;-73
2022/08/11 13:13:25;;;;;;;5.10;1.02;;;;;;;27.63;46.34;99574.41;4432720;32;20050;-72
2022/08/11 13:15:51;;;;;;;7.45;1.70;;;;;;;26.90;47.66;99526.44;4444632;32;20038;-71
2022/08/11 13:18:22;;;;;;;3.60;0.90;;;;;;;26.88;49.78;99538.97;4438126;32;20033;-72
2022/08/11 13:20:53;;;;;;;2.90;1.30;;;;;;;26.93;49.74;99541.50;4438259;32;20075;-72
2022/08/11 13:23:22;;;;;;;2.33;1.30;;;;;;;27.15;50.53;99560.34;4434589;32;20056;-72
2022/08/11 13:25:52;;;;;;;3.20;1.08;;;;;;;27.27;51.36;99567.00;4438347;32;20130;-72
2022/08/11 13:28:21;;;;;;;1.23;1.15;;;;;;;27.19;49.60;99557.72;4438209;32;20083;-72
2022/08/11 13:33:45;;;;;;;1.10;1.00;;;;;;;27.47;51.61;99565.25;4431053;32;20447;-71
2022/08/11 13:36:14;;;;;;;3.35;1.40;;;;;;;27.11;49.52;99497.81;4432078;32;20056;-71
2022/08/11 13:38:43;;;;;;;1.60;0.77;;;;;;;27.25;48.29;99541.66;4429252;32;20064;-70
2022/08/11 13:43:56;;;;;;;2.00;1.12;;;;;;;27.13;43.83;99529.50;4431894;32;20367;-71
2022/08/11 13:46:23;;;;;;;4.37;1.02;;;;;;;25.50;68.26;99549.25;4434630;32;20105;-73
2022/08/11 13:48:55;;;;;;;4.57;1.15;;;;;;;24.33;98.39;99542.25;4433649;32;20063;-71
2022/08/11 13:51:29;;;;;;;6.03;1.40;;;;;;;24.10;100.00;99547.97;4447292;32;20114;-71
2022/08/11 13:54:03;;;;;;;7.18;1.73;;;;;;;23.98;100.00;99591.03;4447072;32;20034;-70
2022/08/11 13:56:32;;;;;;;8.05;1.50;;;;;;;23.26;100.00;99598.75;4444972;32;20087;-69
2022/08/11 13:59:00;;;;;;;13.48;1.48;;;;;;;22.25;100.00;99577.34;4446916;32;20072;-69
2022/08/11 14:01:32;;;;;;;8.52;1.50;;;;;;;20.97;100.00;99560.03;4447197;32;20079;-70
2022/08/11 14:04:07;;;;;;;1.92;1.05;;;;;;;19.54;100.00;99582.47;4428146;32;20145;-72
2022/08/11 14:06:37;;;;;;;1.17;0.90;;;;;;;19.84;100.00;99608.56;4432270;32;20022;-69
2022/08/11 14:09:07;;;;;;;2.12;2.00;;;;;;;20.07;100.00;99597.81;4432430;32;20448;-69
2022/08/11 14:14:25;;;;;;;2.28;1.65;;;;;;;20.19;100.00;99606.34;4413549;32;20423;-70
2022/08/11 14:17:03;;;;;;;17.35;2.33;;;;;;;20.18;100.00;99604.72;4402749;32;20065;-69
2022/08/11 14:19:34;;;;;;;4.93;1.35;;;;;;;20.47;100.00;99620.06;4404472;32;20049;-68
2022/08/11 14:22:05;;;;;;;1.73;1.60;;;;;;;20.97;100.00;99636.69;4416742;32;20349;-69
2022/08/11 14:24:36;;;;;;;8.13;1.77;;;;;;;20.87;100.00;99650.56;4416877;32;20077;-70
2022/08/11 14:27:03;;;;;;;3.37;1.83;;;;;;;20.89;100.00;99647.53;4414746;32;20054;-73
2022/08/11 14:29:31;;;;;;;4.05;1.37;;;;;;;20.07;100.00;99590.44;4415669;32;20383;-71
2022/08/11 14:32:01;;;;;;;4.03;1.30;;;;;;;19.71;100.00;99631.12;4416290;32;20062;-70
2022/08/11 14:34:29;;;;;;;1.92;1.30;;;;;;;20.01;100.00;99626.31;4423633;32;20060;-70
2022/08/11 14:36:59;;;;;;;3.25;1.30;;;;;;;19.99;100.00;99625.81;4416601;32;20049;-69
2022/08/11 14:39:30;;;;;;;6.30;2.10;;;;;;;20.08;100.00;99572.09;4419985;32;20023;-69
2022/08/11 14:47:56;;;;;;;4.07;1.90;;;;;;;20.32;100.00;99556.34;4415947;32;20053;-70
2022/08/11 14:50:28;;;;;;;5.60;1.75;;;;;;;20.97;100.00;99590.16;4414433;32;20085;-72
2022/08/11 14:53:00;;;;;;;2.17;1.62;;;;;;;21.33;100.00;99599.53;4384839;32;20540;-70
2022/08/11 14:58:17;;;;;;;3.10;1.40;;;;;;;21.94;100.00;99584.44;4384593;32;20031;-71
2022/08/11 15:00:45;;;;;;;4.03;1.40;;;;;;;22.04;100.00;99558.69;4385096;32;20039;-71
2022/08/11 15:03:13;;;;;;;1.50;1.40;;;;;;;22.31;100.00;99554.19;4385640;32;20434;-71
2022/08/11 15:05:55;;;;;;;6.15;1.37;;;;;;;22.47;100.00;99602.03;4385160;32;20023;-71
2022/08/11 15:08:53;;;;;;;5.72;2.12;;;;;;;21.66;100.00;99507.00;4384203;32;20136;-70
2022/08/11 15:14:00;;;;;;;2.90;2.15;;;;;;;22.29;100.00;99601.12;4385676;32;20034;-71
2022/08/11 15:19:13;;;;;;;3.87;1.30;;;;;;;22.36;100.00;99611.66;4385650;32;20264;-70
2022/08/11 15:24:25;;;;;;;2.92;1.80;;;;;;;22.12;100.00;99598.25;4403892;32;20026;-71
2022/08/11 15:38:01;;;;;;;1.20;1.10;;;;;;;22.73;100.00;99598.59;4432720;32;20027;-72
2022/08/11 15:46:15;;;;;;;1.33;1.02;;;;;;;23.64;100.00;99631.16;4431117;32;20056;-70
2022/08/11 15:48:55;;;;;;;4.25;1.20;;;;;;;24.05;100.00;99613.37;4431121;32;20803;-71
2022/08/11 15:51:36;;;;;;;4.25;1.42;;;;;;;24.11;100.00;99581.81;4432887;32;20060;-71
2022/08/11 15:54:08;;;;;;;1.45;0.80;;;;;;;24.93;100.00;99620.25;4430493;32;20034;-73
2022/08/11 15:56:38;;;;;;;1.10;1.05;;;;;;;24.19;100.00;99583.75;4432779;32;20062;-71
2022/08/11 16:04:58;;;;;;;0.60;0.60;;;;;;;24.22;100.00;99613.34;4375932;32;20354;-71
2022/08/11 16:07:34;;;;;;;1.45;1.00;;;;;;;24.78;100.00;99541.75;4423079;32;20034;-71
2022/08/11 16:10:10;;;;;;;0.60;0.60;;;;;;;26.01;93.53;99552.69;4432619;32;20352;-72
2022/08/11 16:16:13;;;;;;;4.18;1.40;;;;;;;25.42;93.68;99552.84;4431748;32;20060;-71
2022/08/11 16:18:39;;;;;;;0.70;0.70;;;;;;;23.91;100.00;99561.28;4431185;32;20078;-71
2022/08/11 16:21:18;;;;;;;0.75;0.75;;;;;;;23.95;100.00;99576.03;4431584;32;20063;-70
2022/08/11 16:23:47;;;;;;;1.48;1.00;;;;;;;23.66;100.00;99546.41;4427153;32;20038;-72
2022/08/11 16:26:18;;;;;;;2.42;0.80;;;;;;;23.72;100.00;99569.84;4428234;32;20266;-70
2022/08/11 16:28:46;;;;;;;0.98;0.93;;;;;;;23.69;100.00;99570.50;4428348;32;20115;-70
2022/08/11 16:31:14;;;;;;;0.93;0.90;;;;;;;23.79;100.00;99572.09;4414797;32;20038;-70
2022/08/11 16:33:42;;;;;;;1.00;1.00;;;;;;;23.57;100.00;99566.47;4412532;32;20042;-71
2022/08/11 16:38:56;;;;;;;1.50;1.40;;;;;;;22.67;100.00;99523.00;4414650;32;20039;-72
2022/08/11 16:47:04;;;;;;;1.42;1.12;;;;;;;22.59;100.00;99515.56;4345343;32;20110;-71
2022/08/11 16:49:35;;;;;;;1.70;1.10;;;;;;;22.56;100.00;99543.63;4369162;32;20057;-72
2022/08/11 16:52:04;;;;;;;6.15;0.70;;;;;;;22.65;100.00;99552.72;4372006;32;20055;-73